Terminal Aerodrome Forecast
Issued by NWS Corpus Christi, TX

Home | Current Version | Previous Version | Text Only | Print | Product List | Glossary On
Versions: 1 2 3 4 5 6 7 8 9 10 11 12 13 14 15 16 17 18
000
FTUS44 KCRP 251945 AAA
TAFVCT
TAF AMD
KVCT 251945Z 2520/2618 14010KT P6SM VCSH SCT030 BKN050
     FM252200 14011KT P6SM SCT040 SCT250
     FM260200 13007KT P6SM SCT020 BKN250
     FM260800 10004KT 4SM BR BKN015 BKN150
     FM261500 11008KT P6SM FEW015 BKN035=

USA.gov is the U.S. government's official web portal to all federal, state and local government web resources and services.